createdAt,value
2018-10-17T00:04:25.225Z,83.26
2018-10-17T00:09:29.792Z,83.56
2018-10-17T00:14:34.671Z,83.43
2018-10-17T00:19:39.236Z,83.62
2018-10-17T00:24:43.668Z,82.79
2018-10-17T00:29:48.406Z,82.78
2018-10-17T00:34:53.092Z,82.60
2018-10-17T00:39:57.758Z,82.45
2018-10-17T00:45:02.684Z,82.12
2018-10-17T00:50:07.341Z,82.55
2018-10-17T00:55:12.510Z,82.79
2018-10-17T01:00:16.845Z,82.56
2018-10-17T01:05:21.205Z,82.51
2018-10-17T01:10:25.512Z,82.26
2018-10-17T01:15:30.256Z,82.76
2018-10-17T01:20:34.951Z,82.58
2018-10-17T01:25:39.383Z,82.60
2018-10-17T01:30:43.799Z,83.82
2018-10-17T01:35:48.133Z,84.50
2018-10-17T01:40:52.564Z,86.05
2018-10-17T01:45:57.517Z,86.14
2018-10-17T01:51:02.013Z,86.33
2018-10-17T01:56:07.065Z,86.32
2018-10-17T02:01:12.327Z,87.26
2018-10-17T02:06:16.622Z,87.01
2018-10-17T02:11:21.032Z,86.61
2018-10-17T02:16:25.807Z,86.92
2018-10-17T02:21:30.709Z,86.46
2018-10-17T02:26:36.352Z,86.98
2018-10-17T02:31:41.008Z,87.63
2018-10-17T02:36:45.646Z,87.58
2018-10-17T02:41:55.482Z,87.14
2018-10-17T02:47:00.102Z,86.47
2018-10-17T02:52:04.725Z,86.38
2018-10-17T02:57:09.972Z,86.82
2018-10-17T03:02:14.657Z,87.35
2018-10-17T03:07:19.506Z,86.96
2018-10-17T03:12:24.376Z,86.30
2018-10-17T03:17:28.941Z,86.00
2018-10-17T03:22:33.891Z,85.24
2018-10-17T03:27:38.233Z,85.71
2018-10-17T03:32:42.613Z,86.00
2018-10-17T03:37:47.900Z,87.54
2018-10-17T03:42:52.976Z,86.94
2018-10-17T03:47:57.729Z,87.49
2018-10-17T03:53:15.652Z,87.38
2018-10-17T03:58:20.015Z,86.79
2018-10-17T04:03:24.513Z,86.13
2018-10-17T04:08:29.528Z,86.02
2018-10-17T04:13:34.694Z,86.34
2018-10-17T04:18:39.266Z,85.43
2018-10-17T04:23:43.669Z,84.99
2018-10-17T04:28:48.440Z,84.58
2018-10-17T04:33:52.695Z,85.61
2018-10-17T04:38:57.844Z,84.92
2018-10-17T04:44:02.159Z,84.76
2018-10-17T04:49:08.213Z,84.66
2018-10-17T04:54:13.980Z,85.36
2018-10-17T04:59:18.548Z,85.14
2018-10-17T05:04:23.377Z,85.02
2018-10-17T05:09:27.642Z,84.92
2018-10-17T05:14:32.191Z,86.20
2018-10-17T05:19:36.569Z,85.64
2018-10-17T05:24:41.142Z,85.56
2018-10-17T05:29:46.083Z,85.07
2018-10-17T05:34:50.965Z,85.31
2018-10-17T05:39:55.476Z,85.66
2018-10-17T05:44:59.874Z,84.73
2018-10-17T05:50:04.634Z,85.68
2018-10-17T05:55:09.395Z,85.86
2018-10-17T06:00:14.598Z,86.23
2018-10-17T06:05:19.119Z,86.67
2018-10-17T06:10:24.000Z,87.27
2018-10-17T06:15:28.003Z,87.04
2018-10-17T06:20:32.862Z,87.07
2018-10-17T06:25:37.697Z,87.19
2018-10-17T06:30:42.018Z,87.85
2018-10-17T06:35:46.702Z,87.26
2018-10-17T06:40:50.984Z,87.47
2018-10-17T06:45:55.695Z,86.86
2018-10-17T06:51:00.394Z,86.98
2018-10-17T06:56:05.804Z,87.32
2018-10-17T07:01:10.291Z,87.44
2018-10-17T07:06:14.570Z,88.10
2018-10-17T07:11:19.830Z,87.63
2018-10-17T07:16:26.889Z,87.89
2018-10-17T07:21:31.391Z,87.60
2018-10-17T07:26:35.771Z,86.11
2018-10-17T07:31:40.703Z,85.61
2018-10-17T07:36:45.189Z,85.80
2018-10-17T07:41:49.876Z,85.83
2018-10-17T07:46:54.175Z,85.10
2018-10-17T07:51:59.449Z,85.36
2018-10-17T07:57:03.809Z,83.81
2018-10-17T08:02:08.319Z,83.92
2018-10-17T08:07:12.745Z,83.27
2018-10-17T08:12:17.933Z,81.60
2018-10-17T08:17:22.365Z,81.92
2018-10-17T08:22:26.949Z,82.07
2018-10-17T08:27:31.596Z,82.57
2018-10-17T08:32:36.051Z,82.06
2018-10-17T08:37:41.302Z,83.10
2018-10-17T08:42:45.183Z,83.29
2018-10-17T08:47:49.555Z,82.84
2018-10-17T08:52:54.106Z,82.93
2018-10-17T08:57:58.921Z,82.23
2018-10-17T09:03:03.805Z,79.05
2018-10-17T09:08:08.261Z,75.23
2018-10-17T09:13:13.237Z,77.65
2018-10-17T09:18:19.071Z,77.41
2018-10-17T09:23:27.648Z,79.34
2018-10-17T09:28:32.186Z,79.56
2018-10-17T09:33:44.309Z,72.55
2018-10-17T09:38:49.093Z,65.15
2018-10-17T09:43:53.670Z,64.60
2018-10-17T09:48:58.311Z,64.00
2018-10-17T09:54:02.979Z,65.08
2018-10-17T09:59:07.813Z,66.89
2018-10-17T10:04:12.329Z,70.27
2018-10-17T10:14:31.560Z,73.96
2018-10-17T10:19:36.103Z,73.75
2018-10-17T10:24:41.146Z,74.11
2018-10-17T10:29:46.394Z,73.58
2018-10-17T10:34:50.802Z,73.90
2018-10-17T10:39:55.394Z,74.13
2018-10-17T10:44:59.552Z,73.99
2018-10-17T10:50:09.592Z,73.54
2018-10-17T10:55:13.788Z,73.79
2018-10-17T11:00:21.106Z,72.48
2018-10-17T11:05:26.353Z,71.75
2018-10-17T11:10:35.418Z,71.14
2018-10-17T11:15:40.582Z,71.55
2018-10-17T11:20:45.288Z,71.69
2018-10-17T11:25:49.654Z,72.21
2018-10-17T11:30:54.168Z,70.13
2018-10-17T11:35:58.660Z,71.34
2018-10-17T11:41:05.571Z,70.18
2018-10-17T11:46:14.269Z,69.67
2018-10-17T11:56:33.728Z,69.50
2018-10-17T12:01:45.118Z,68.99
2018-10-17T12:06:49.780Z,65.22
2018-10-17T12:11:54.744Z,60.47
2018-10-17T12:16:59.640Z,59.13
2018-10-17T12:22:04.425Z,56.33
2018-10-17T12:27:09.792Z,54.35
2018-10-17T12:32:14.509Z,52.29
2018-10-17T12:37:20.294Z,51.22
2018-10-17T12:42:26.094Z,51.33
2018-10-17T12:47:30.825Z,46.86
2018-10-17T12:52:35.317Z,45.20
2018-10-17T12:57:39.850Z,44.78
2018-10-17T13:02:49.589Z,45.37
2018-10-17T13:07:55.814Z,46.56
2018-10-17T13:13:00.790Z,46.05
2018-10-17T13:18:06.490Z,40.39
2018-10-17T13:23:11.627Z,41.61
2018-10-17T13:28:16.680Z,40.72
2018-10-17T13:33:23.029Z,45.14
2018-10-17T13:38:28.571Z,46.51
2018-10-17T13:43:36.647Z,44.14
2018-10-17T13:48:41.507Z,45.90
2018-10-17T13:53:46.905Z,47.00
2018-10-17T13:58:51.970Z,49.03
2018-10-17T14:03:57.608Z,49.92
2018-10-17T14:09:03.586Z,52.00
2018-10-17T14:14:08.802Z,54.20
2018-10-17T14:19:13.272Z,55.61
2018-10-17T14:24:18.685Z,56.70
2018-10-17T14:29:23.595Z,56.72
2018-10-17T14:34:28.380Z,57.88
2018-10-17T14:39:33.876Z,56.88
2018-10-17T14:44:38.666Z,57.84
2018-10-17T14:49:43.612Z,58.88
2018-10-17T14:54:47.947Z,57.22
2018-10-17T14:59:52.701Z,58.35
2018-10-17T15:04:57.497Z,57.70
2018-10-17T15:10:01.876Z,59.41
2018-10-17T15:15:06.886Z,59.08
2018-10-17T15:20:11.311Z,59.98
2018-10-17T15:25:16.024Z,60.25
2018-10-17T15:30:20.801Z,60.58
2018-10-17T15:35:25.302Z,61.57
2018-10-17T15:40:29.784Z,61.47
2018-10-17T15:45:34.110Z,61.69
2018-10-17T15:50:43.306Z,61.66
2018-10-17T15:55:48.009Z,62.03
2018-10-17T16:00:52.191Z,62.30
2018-10-17T16:05:56.601Z,62.21
2018-10-17T16:11:01.061Z,62.30
2018-10-17T16:16:05.907Z,63.46
2018-10-17T16:21:10.536Z,63.81
2018-10-17T16:26:15.412Z,64.65
2018-10-17T16:31:19.634Z,64.95
2018-10-17T16:36:25.184Z,64.27
2018-10-17T16:41:29.935Z,64.54
2018-10-17T16:46:34.446Z,64.56
2018-10-17T16:51:39.537Z,65.25
2018-10-17T16:56:43.963Z,64.66
2018-10-17T17:01:48.344Z,64.91
2018-10-17T17:06:52.769Z,65.21
2018-10-17T17:12:10.733Z,65.20
2018-10-17T17:17:15.239Z,65.49
2018-10-17T17:22:18.731Z,66.45
2018-10-17T17:27:22.280Z,66.76
2018-10-17T17:32:26.020Z,67.27
2018-10-17T17:37:29.684Z,67.45
2018-10-17T17:42:33.086Z,67.52
2018-10-17T17:47:37.308Z,68.20
2018-10-17T17:52:40.861Z,68.98
2018-10-17T17:57:44.913Z,69.58
2018-10-17T18:02:48.452Z,69.92
2018-10-17T18:07:51.898Z,70.03
2018-10-17T18:12:55.410Z,70.31
2018-10-17T18:17:58.916Z,70.43
2018-10-17T18:23:03.630Z,71.06
2018-10-17T18:28:08.237Z,71.22
2018-10-17T18:33:24.778Z,72.24
2018-10-17T18:38:28.320Z,71.95
2018-10-17T18:43:37.726Z,72.40
2018-10-17T18:48:41.252Z,72.60
2018-10-17T18:53:44.724Z,73.10
2018-10-17T18:58:48.380Z,73.41
2018-10-17T19:04:01.192Z,73.31
2018-10-17T19:09:08.052Z,74.43
2018-10-17T19:14:11.788Z,74.44
2018-10-17T19:19:15.685Z,74.82
2018-10-17T19:24:24.107Z,75.08
2018-10-17T19:29:27.815Z,75.47
2018-10-17T19:34:31.310Z,75.53
2018-10-17T19:39:35.191Z,75.69
2018-10-17T19:44:38.705Z,75.77
2018-10-17T19:49:43.049Z,75.86
2018-10-17T19:54:55.863Z,76.22
2018-10-17T19:59:59.813Z,75.75
2018-10-17T20:05:03.453Z,76.30
2018-10-17T20:10:07.675Z,76.78
2018-10-17T20:15:12.289Z,76.95
2018-10-17T20:20:22.989Z,77.29
2018-10-17T20:25:26.670Z,77.34
2018-10-17T20:30:40.353Z,77.47
2018-10-17T20:35:43.821Z,78.44
2018-10-17T20:40:47.452Z,77.60
2018-10-17T20:45:51.399Z,78.37
2018-10-17T20:51:04.223Z,78.04
2018-10-17T20:56:07.774Z,78.18
2018-10-17T21:01:11.120Z,78.43
2018-10-17T21:06:14.879Z,78.42
2018-10-17T21:11:18.613Z,78.19
2018-10-17T21:16:22.035Z,78.33
2018-10-17T21:21:26.388Z,78.66
2018-10-17T21:26:30.187Z,79.12
2018-10-17T21:31:47.940Z,79.17
2018-10-17T21:36:51.714Z,79.71
2018-10-17T21:41:55.861Z,79.50
2018-10-17T21:46:59.488Z,79.48
2018-10-17T21:57:30.388Z,79.58
2018-10-17T22:02:39.154Z,79.75
2018-10-17T22:07:43.422Z,79.41
2018-10-17T22:12:56.139Z,79.58
2018-10-17T22:17:59.639Z,79.74
2018-10-17T22:23:03.220Z,79.42
2018-10-17T22:28:06.590Z,80.16
2018-10-17T22:33:10.205Z,80.86
2018-10-17T22:38:13.676Z,80.51
2018-10-17T22:43:17.257Z,81.18
2018-10-17T22:48:22.447Z,81.19
2018-10-17T22:53:26.664Z,81.46
2018-10-17T22:58:31.159Z,81.53
2018-10-17T23:03:35.106Z,81.67
2018-10-17T23:08:38.873Z,81.07
2018-10-17T23:13:42.419Z,81.76
2018-10-17T23:18:47.057Z,81.51
2018-10-17T23:23:51.283Z,81.91
2018-10-17T23:28:54.934Z,81.74
2018-10-17T23:33:59.041Z,81.78
2018-10-17T23:39:02.745Z,81.88
2018-10-17T23:44:06.468Z,81.92
2018-10-17T23:49:10.991Z,82.00
2018-10-17T23:54:15.427Z,82.48
2018-10-17T23:59:18.829Z,82.41
